createdAt,value
2023-02-01T00:01:08.559Z,16.3
2023-02-01T00:07:14.677Z,16.3
2023-02-01T00:13:20.670Z,16.2
2023-02-01T00:19:26.645Z,16.2
2023-02-01T00:25:32.831Z,16.2
2023-02-01T00:31:38.820Z,16.1
2023-02-01T00:37:44.590Z,16.2
2023-02-01T00:43:50.580Z,16.2
2023-02-01T00:49:56.797Z,16.2
2023-02-01T00:56:02.726Z,16.2
2023-02-01T01:02:09.363Z,16.2
2023-02-01T01:08:14.921Z,16.2
2023-02-01T01:14:20.277Z,16.3
2023-02-01T01:20:26.508Z,16.3
2023-02-01T01:26:32.299Z,16.2
2023-02-01T01:32:38.619Z,16.2
2023-02-01T01:38:44.607Z,16.2
2023-02-01T01:44:50.589Z,16.2
2023-02-01T01:50:56.968Z,16.2
2023-02-01T01:57:02.770Z,16.2
2023-02-01T02:03:08.932Z,16.1
2023-02-01T02:09:15.126Z,16.2
2023-02-01T02:15:21.329Z,16.1
2023-02-01T02:21:27.514Z,16.2
2023-02-01T02:27:33.061Z,16.2
2023-02-01T02:33:39.229Z,16.2
2023-02-01T02:39:45.047Z,16.2
2023-02-01T02:45:51.024Z,16.1
2023-02-01T02:51:57.189Z,16.2
2023-02-01T02:58:02.986Z,16.2
2023-02-01T03:04:08.743Z,16.1
2023-02-01T03:10:14.999Z,16.1
2023-02-01T03:16:20.827Z,16.1
2023-02-01T03:22:27.108Z,16.1
2023-02-01T03:28:33.330Z,16.1
2023-02-01T03:34:39.075Z,16.1
2023-02-01T03:40:44.846Z,16.2
2023-02-01T03:46:51.030Z,16.1
2023-02-01T03:52:56.810Z,16.1
2023-02-01T03:59:03.020Z,16.1
2023-02-01T04:05:08.836Z,16.1
2023-02-01T04:11:14.592Z,16.1
2023-02-01T04:17:20.520Z,16.1
2023-02-01T04:23:26.701Z,16
2023-02-01T04:29:32.286Z,16
2023-02-01T04:35:38.463Z,16.1
2023-02-01T04:41:44.646Z,16.1
2023-02-01T04:47:50.323Z,16.2
2023-02-01T04:53:56.197Z,16.3
2023-02-01T05:00:02.601Z,16.4
2023-02-01T05:06:08.213Z,16.5
2023-02-01T05:12:14.152Z,16.6
2023-02-01T05:18:20.556Z,16.7
2023-02-01T05:24:26.529Z,16.8
2023-02-01T05:30:32.354Z,16.8
2023-02-01T05:36:37.863Z,16.8
2023-02-01T05:42:43.839Z,16.8
2023-02-01T05:48:49.623Z,16.8
2023-02-01T05:54:55.405Z,16.8
2023-02-01T06:01:01.602Z,16.8
2023-02-01T06:07:07.382Z,16.8
2023-02-01T06:13:13.164Z,16.8
2023-02-01T06:19:19.310Z,16.7
2023-02-01T06:25:25.081Z,16.8
2023-02-01T06:31:31.220Z,16.8
2023-02-01T06:37:37.481Z,16.7
2023-02-01T06:43:43.281Z,16.7
2023-02-01T06:49:49.247Z,16.8
2023-02-01T06:55:55.410Z,16.7
2023-02-01T07:02:01.651Z,16.8
2023-02-01T07:08:08.207Z,16.7
2023-02-01T07:14:14.071Z,16.8
2023-02-01T07:20:20.282Z,16.8
2023-02-01T07:26:26.735Z,16.8
2023-02-01T07:32:32.777Z,16.8
2023-02-01T07:38:38.920Z,16.8
2023-02-01T07:44:44.910Z,16.8
2023-02-01T07:50:50.882Z,16.8
2023-02-01T07:56:56.881Z,16.8
2023-02-01T08:03:03.076Z,16.9
2023-02-01T08:09:08.639Z,16.9
2023-02-01T08:15:14.841Z,16.9
2023-02-01T08:21:21.017Z,16.9
2023-02-01T08:27:27.071Z,16.8
2023-02-01T08:33:32.994Z,16.9
2023-02-01T08:39:39.150Z,16.9
2023-02-01T08:45:45.386Z,16.9
2023-02-01T08:51:51.511Z,16.9
2023-02-01T08:58:00.993Z,16.9
2023-02-01T09:04:06.781Z,16.9
2023-02-01T09:10:12.525Z,16.9
2023-02-01T09:16:22.273Z,16.9
2023-02-01T09:22:28.805Z,16.9
2023-02-01T09:28:34.992Z,16.9
2023-02-01T09:34:41.579Z,16.9
2023-02-01T09:40:47.370Z,16.9
2023-02-01T09:46:52.995Z,16.9
2023-02-01T09:52:58.711Z,16.9
2023-02-01T09:59:04.557Z,16.8
2023-02-01T10:05:10.465Z,16.8
2023-02-01T10:11:15.906Z,16.8
2023-02-01T10:17:22.073Z,16.8
2023-02-01T10:23:34.206Z,16.8
2023-02-01T10:29:41.024Z,16.7
2023-02-01T10:35:46.794Z,16.7
2023-02-01T10:41:52.916Z,16.8
2023-02-01T10:47:59.072Z,16.7
2023-02-01T10:54:04.519Z,16.7
2023-02-01T11:00:09.831Z,16.7
2023-02-01T11:06:15.399Z,16.6
2023-02-01T11:12:21.154Z,16.6
2023-02-01T11:18:27.559Z,16.6
2023-02-01T11:24:33.272Z,16.6
2023-02-01T11:30:39.760Z,16.6
2023-02-01T11:36:45.532Z,16.5
2023-02-01T11:42:51.916Z,16.5
2023-02-01T11:48:58.478Z,16.5
2023-02-01T11:55:04.044Z,16.5
2023-02-01T12:01:09.858Z,16.4
2023-02-01T12:07:15.884Z,16.4
2023-02-01T12:13:21.798Z,16.4
2023-02-01T12:19:27.995Z,16.4
2023-02-01T12:25:33.959Z,16.4
2023-02-01T12:31:40.436Z,16.3
2023-02-01T12:37:46.383Z,16.3
2023-02-01T12:43:52.568Z,16.3
2023-02-01T12:49:58.511Z,16.3
2023-02-01T12:56:04.481Z,16.4
2023-02-01T13:02:10.263Z,16.4
2023-02-01T13:08:16.037Z,16.4
2023-02-01T13:14:22.039Z,16.4
2023-02-01T13:20:27.999Z,16.4
2023-02-01T13:26:33.801Z,16.4
2023-02-01T13:32:53.139Z,16.5
2023-02-01T13:39:59.678Z,16.4
2023-02-01T13:46:05.669Z,16.4
2023-02-01T13:52:11.911Z,16.4
2023-02-01T13:58:17.714Z,16.4
2023-02-01T14:04:23.525Z,16.4
2023-02-01T14:10:29.588Z,16.4
2023-02-01T14:16:35.760Z,16.6
2023-02-01T14:22:41.777Z,16.7
2023-02-01T14:28:47.727Z,16.7
2023-02-01T14:34:53.593Z,16.9
2023-02-01T14:40:59.681Z,17
2023-02-01T14:47:05.872Z,17
2023-02-01T14:53:11.869Z,17.1
2023-02-01T14:59:17.242Z,17.1
2023-02-01T15:05:23.904Z,17
2023-02-01T15:11:29.807Z,17.1
2023-02-01T15:17:35.792Z,17
2023-02-01T15:23:41.752Z,17
2023-02-01T15:29:48.204Z,17
2023-02-01T15:35:53.811Z,17
2023-02-01T15:41:59.509Z,17
2023-02-01T15:48:05.279Z,16.9
2023-02-01T15:54:10.877Z,16.9
2023-02-01T16:00:17.043Z,16.9
2023-02-01T16:06:23.026Z,17
2023-02-01T16:12:29.285Z,16.9
2023-02-01T16:18:35.388Z,16.9
2023-02-01T16:24:41.606Z,16.9
2023-02-01T16:30:47.577Z,16.9
2023-02-01T16:36:53.402Z,16.9
2023-02-01T16:43:00.160Z,17
2023-02-01T16:49:06.455Z,17
2023-02-01T16:55:12.113Z,17
2023-02-01T17:01:18.150Z,17
2023-02-01T17:07:24.478Z,17
2023-02-01T17:13:30.697Z,17
2023-02-01T17:19:37.061Z,17.1
2023-02-01T17:25:43.263Z,17
2023-02-01T17:31:49.056Z,17
2023-02-01T17:37:55.053Z,17
2023-02-01T17:44:01.394Z,17
2023-02-01T17:50:07.441Z,17
2023-02-01T17:56:13.344Z,17
2023-02-01T18:02:19.379Z,17
2023-02-01T18:08:24.900Z,17
2023-02-01T18:14:30.679Z,17
2023-02-01T18:20:36.897Z,17
2023-02-01T18:26:42.298Z,17
2023-02-01T18:32:48.431Z,17
2023-02-01T18:38:53.784Z,17
2023-02-01T18:45:00.389Z,17
2023-02-01T18:51:06.382Z,17
2023-02-01T18:57:14.615Z,16.9
2023-02-01T19:03:22.244Z,16.4
2023-02-01T19:09:29.232Z,16.3
2023-02-01T19:15:35.273Z,16.3
2023-02-01T19:21:41.404Z,16.3
2023-02-01T19:27:47.796Z,16.3
2023-02-01T19:47:12.639Z,16.2
2023-02-01T19:53:19.731Z,16.2
2023-02-01T19:59:27.033Z,16.7
2023-02-01T20:05:31.531Z,16.9
2023-02-01T20:11:37.282Z,16.9
2023-02-01T20:17:42.417Z,17
2023-02-01T20:23:48.612Z,16.9
2023-02-01T20:29:55.275Z,16.9
2023-02-01T20:36:01.469Z,16.9
2023-02-01T20:42:07.006Z,16.9
2023-02-01T20:48:13.404Z,16.9
2023-02-01T20:54:19.590Z,16.9
2023-02-01T21:00:24.966Z,16.9
2023-02-01T21:06:30.626Z,16.9
2023-02-01T21:12:36.924Z,16.9
2023-02-01T21:18:42.919Z,16.9
2023-02-01T21:24:49.098Z,16.9
2023-02-01T21:30:55.110Z,16.9
2023-02-01T21:37:01.776Z,16.9
2023-02-01T21:43:07.537Z,16.9
2023-02-01T21:49:12.987Z,16.9
2023-02-01T21:55:18.173Z,16.9
2023-02-01T22:01:23.503Z,16.8
2023-02-01T22:07:28.805Z,16.8
2023-02-01T22:13:35.021Z,16.8
2023-02-01T22:19:40.672Z,16.8
2023-02-01T22:25:46.211Z,16.7
2023-02-01T22:31:51.953Z,16.7
2023-02-01T22:37:57.743Z,16.7
2023-02-01T22:44:02.838Z,16.7
2023-02-01T22:50:09.287Z,16.6
2023-02-01T22:56:14.992Z,16.6
2023-02-01T23:02:20.828Z,16.6
2023-02-01T23:08:26.334Z,16.5
2023-02-01T23:14:31.588Z,16.5
2023-02-01T23:20:36.882Z,16.4
2023-02-01T23:26:42.610Z,16.5
2023-02-01T23:32:49.040Z,16.4
2023-02-01T23:38:54.407Z,16.4
2023-02-01T23:45:00.196Z,16.4
2023-02-01T23:51:06.347Z,16.3
2023-02-01T23:57:11.944Z,16.3
